Kwajalein/Bucholz, Marshall Islands
Current Conditions -  °F | °C
As of 12:00 PM on Tuesday 23 Dec 2014 (Local Time) from PKWA Reporting Station
Broken Clouds Broken Clouds  
Wind Chill: 87°   Ceiling: 2800
Heat Index: 93°   Visibility: 7mi
Dew Point: 73°   Wind: 23mph
Humidity: 63%   Direction: 70°ENE
Pressure: 29.81"   Gusts: 32mph
Location:  8.73°N, 167.73°E
Report Text: PKWA 230000Z AUTO 07020G28KT 7SM SCT023 BKN028 BKN040 30/23 A2981 RMK AO2 T03030225
Loading
Personal Weather Stations






























Interactive Weather Map New forecast layout! Learn more

10-Day Weather Forecast

Advertisements
Track Severe Weather on mobile